Time;durP1;ratioP1;P1;durP2;ratioP2;P2;SDS_P1;SDS_P2;PMS_P1;PMS_P2;Temp;Humidity;BMP_temperature;BMP_pressure;BME280_temperature;BME280_humidity;BME280_pressure;Samples;Min_cycle;Max_cycle;Signal;HPM_P1;HPM_P2
2023/07/13 00:01:28;;;;;;;1999.90;999.90;;;16.30;99.90;;;;;;4938895;29;20115;-70
2023/07/13 00:03:54;;;;;;;1999.90;999.90;;;16.40;99.90;;;;;;4956578;28;20037;-69
2023/07/13 00:06:21;;;;;;;1999.90;999.90;;;16.30;99.90;;;;;;4955613;29;20031;-69
2023/07/13 00:08:50;;;;;;;1999.90;999.90;;;16.30;99.90;;;;;;4957826;28;20497;-69
2023/07/13 00:11:17;;;;;;;1999.90;999.90;;;16.30;99.90;;;;;;4957769;28;20401;-69
2023/07/13 00:13:43;;;;;;;1999.90;999.90;;;16.30;99.90;;;;;;4956437;29;20031;-70
2023/07/13 00:16:10;;;;;;;1999.90;999.90;;;16.30;99.90;;;;;;4957075;29;20291;-69
2023/07/13 00:18:37;;;;;;;1999.90;999.90;;;16.30;99.90;;;;;;4957631;28;20027;-69
2023/07/13 00:21:06;;;;;;;1999.90;999.90;;;16.30;99.90;;;;;;4957392;28;20024;-69
2023/07/13 00:23:37;;;;;;;1999.90;999.90;;;16.30;99.90;;;;;;4960553;28;20026;-69
2023/07/13 00:26:05;;;;;;;1999.90;999.90;;;16.20;99.90;;;;;;4958207;28;20475;-69
2023/07/13 00:28:31;;;;;;;1999.90;999.90;;;16.20;99.90;;;;;;4957228;28;20019;-69
2023/07/13 00:30:57;;;;;;;1999.90;999.90;;;16.20;99.90;;;;;;4957264;28;20074;-68
2023/07/13 00:33:23;;;;;;;1999.90;999.90;;;16.20;99.90;;;;;;4955086;29;20055;-70
2023/07/13 00:35:49;;;;;;;1999.90;999.90;;;16.20;99.90;;;;;;4956994;28;20492;-69
2023/07/13 00:38:15;;;;;;;1999.90;999.90;;;16.20;99.90;;;;;;4956711;28;20482;-69
2023/07/13 00:40:41;;;;;;;1999.90;999.90;;;16.30;99.90;;;;;;4956903;28;20034;-70
2023/07/13 00:43:19;;;;;;;1999.90;999.90;;;16.30;99.90;;;;;;4963436;28;20145;-69
2023/07/13 00:45:45;;;;;;;1999.90;999.90;;;16.30;99.90;;;;;;4964196;28;20031;-69
2023/07/13 00:48:20;;;;;;;1999.90;999.90;;;16.30;99.90;;;;;;4956456;28;20371;-68
2023/07/13 00:50:50;;;;;;;1999.90;999.90;;;16.30;99.90;;;;;;4956954;28;20513;-69
2023/07/13 00:53:17;;;;;;;1999.90;999.90;;;16.30;99.90;;;;;;4956552;28;20040;-70
2023/07/13 00:55:43;;;;;;;1999.90;999.90;;;16.30;99.90;;;;;;4956698;28;20039;-69
2023/07/13 00:58:08;;;;;;;1999.90;999.90;;;16.30;99.90;;;;;;4956680;28;20078;-69
2023/07/13 01:00:38;;;;;;;1999.90;999.90;;;16.30;99.90;;;;;;4954574;28;20023;-69
2023/07/13 01:03:04;;;;;;;1999.90;999.90;;;16.30;99.90;;;;;;4937105;29;20086;-69
2023/07/13 01:05:32;;;;;;;1999.90;999.90;;;16.30;99.90;;;;;;4945475;29;20482;-69
2023/07/13 01:07:59;;;;;;;1999.90;999.90;;;16.30;99.90;;;;;;4955884;28;20027;-69
2023/07/13 01:10:26;;;;;;;1999.90;999.90;;;16.30;99.90;;;;;;4950007;29;20038;-69
2023/07/13 01:12:52;;;;;;;1999.90;999.90;;;16.20;99.90;;;;;;4956672;28;20027;-69
2023/07/13 01:15:38;;;;;;;1999.90;999.90;;;16.20;99.90;;;;;;4955989;28;20075;-69
2023/07/13 01:18:15;;;;;;;1999.90;999.90;;;16.20;99.90;;;;;;4956143;28;20494;-69
2023/07/13 01:20:50;;;;;;;1999.90;999.90;;;16.20;99.90;;;;;;4956485;28;20027;-69
2023/07/13 01:23:15;;;;;;;1999.90;999.90;;;16.20;99.90;;;;;;4957041;28;20414;-69
2023/07/13 01:25:41;;;;;;;1999.90;999.90;;;16.20;99.90;;;;;;4960318;28;20027;-69
2023/07/13 01:28:08;;;;;;;1999.90;999.90;;;16.20;99.90;;;;;;4955962;29;20031;-69
2023/07/13 01:30:39;;;;;;;1999.90;999.90;;;16.20;99.90;;;;;;4956038;29;20038;-69
2023/07/13 01:33:07;;;;;;;1999.90;999.90;;;16.20;99.90;;;;;;4963658;28;20430;-70
2023/07/13 01:35:33;;;;;;;1999.90;999.90;;;16.30;99.90;;;;;;4967893;28;20031;-69
2023/07/13 01:38:00;;;;;;;1999.90;999.90;;;16.20;99.90;;;;;;4955962;28;20406;-69
2023/07/13 01:40:25;;;;;;;1999.90;999.90;;;16.20;99.90;;;;;;4962462;28;20031;-69
2023/07/13 01:42:51;;;;;;;1999.90;999.90;;;16.20;99.90;;;;;;4959287;28;20034;-69
2023/07/13 01:45:17;;;;;;;1999.90;999.90;;;16.20;99.90;;;;;;4970663;28;20063;-70
2023/07/13 01:47:42;;;;;;;1999.90;999.90;;;16.20;99.90;;;;;;4955987;29;20031;-69
2023/07/13 01:50:08;;;;;;;1999.90;999.90;;;16.20;99.90;;;;;;4955375;29;20037;-69
2023/07/13 01:52:34;;;;;;;1999.90;999.90;;;16.10;99.90;;;;;;4955795;29;20494;-69
2023/07/13 01:55:00;;;;;;;1999.90;999.90;;;16.10;99.90;;;;;;4955349;29;20057;-69
2023/07/13 01:57:25;;;;;;;1999.90;999.90;;;16.00;99.90;;;;;;4954430;29;20027;-69
2023/07/13 01:59:51;;;;;;;1999.90;999.90;;;16.00;99.90;;;;;;4955681;29;20042;-69
2023/07/13 02:02:16;;;;;;;1999.90;999.90;;;16.00;99.90;;;;;;4954510;29;20031;-69
2023/07/13 02:04:42;;;;;;;1999.90;999.90;;;16.00;99.90;;;;;;4954333;28;20062;-69
2023/07/13 02:07:08;;;;;;;1999.90;999.90;;;15.90;99.90;;;;;;4955557;29;20035;-69
2023/07/13 02:09:34;;;;;;;1999.90;999.90;;;15.90;99.90;;;;;;4955221;29;20110;-70
2023/07/13 02:12:00;;;;;;;1999.90;999.90;;;15.80;99.90;;;;;;4955546;29;20107;-69
2023/07/13 02:14:26;;;;;;;1999.90;999.90;;;15.80;99.90;;;;;;4955689;28;20134;-68
2023/07/13 02:16:51;;;;;;;1999.90;999.90;;;15.80;99.90;;;;;;4950123;29;20101;-69
2023/07/13 02:19:17;;;;;;;1999.90;999.90;;;15.80;99.90;;;;;;4954976;29;20605;-68
2023/07/13 02:21:43;;;;;;;1999.90;999.90;;;15.70;99.90;;;;;;4955392;29;20031;-69
2023/07/13 02:24:09;;;;;;;1999.90;999.90;;;15.70;99.90;;;;;;4959853;28;20035;-69
2023/07/13 02:26:34;;;;;;;1999.90;999.90;;;15.70;99.90;;;;;;4955170;29;20094;-69
2023/07/13 02:29:00;;;;;;;1999.90;999.90;;;15.60;99.90;;;;;;4955204;29;20035;-69
2023/07/13 02:31:25;;;;;;;1999.90;999.90;;;15.60;99.90;;;;;;4954878;29;20103;-69
2023/07/13 02:33:51;;;;;;;1999.90;999.90;;;15.60;99.90;;;;;;4954979;29;20031;-69
2023/07/13 02:36:18;;;;;;;1999.90;999.90;;;15.60;99.90;;;;;;4954649;28;20054;-70
2023/07/13 02:38:44;;;;;;;1999.90;999.90;;;15.60;99.90;;;;;;4955572;28;20029;-69
2023/07/13 02:41:09;;;;;;;1999.90;999.90;;;15.50;99.90;;;;;;4966507;28;20030;-69
2023/07/13 02:43:38;;;;;;;1999.90;999.90;;;15.50;99.90;;;;;;4965077;28;20041;-69
2023/07/13 02:46:09;;;;;;;1999.90;999.90;;;15.50;99.90;;;;;;4954781;29;20027;-69
2023/07/13 02:48:36;;;;;;;1999.90;999.90;;;15.40;99.90;;;;;;4955113;29;20055;-69
2023/07/13 02:51:02;;;;;;;1999.90;999.90;;;15.40;99.90;;;;;;4954357;28;20462;-70
2023/07/13 02:53:28;;;;;;;1999.90;999.90;;;15.40;99.90;;;;;;4953277;29;20071;-69
2023/07/13 02:55:53;;;;;;;1999.90;999.90;;;15.40;99.90;;;;;;4954625;29;20035;-69
2023/07/13 02:58:19;;;;;;;1999.90;999.90;;;15.30;99.90;;;;;;4954629;29;20049;-69
2023/07/13 03:00:46;;;;;;;1999.90;999.90;;;15.30;99.90;;;;;;4954624;29;20031;-69
2023/07/13 03:03:13;;;;;;;1999.90;999.90;;;15.30;99.90;;;;;;4954723;29;20034;-70
2023/07/13 03:05:42;;;;;;;1999.90;999.90;;;15.30;99.90;;;;;;4953835;29;20474;-69
2023/07/13 03:08:11;;;;;;;1999.90;999.90;;;15.20;99.90;;;;;;4954908;28;20031;-68
2023/07/13 03:10:39;;;;;;;1999.90;999.90;;;15.10;99.90;;;;;;4954653;28;20457;-68
2023/07/13 03:13:05;;;;;;;1999.90;999.90;;;15.10;99.90;;;;;;4954447;28;20024;-69
2023/07/13 03:15:31;;;;;;;1999.90;999.90;;;15.10;99.90;;;;;;4953969;29;20034;-69
2023/07/13 03:17:56;;;;;;;1999.90;999.90;;;15.10;99.90;;;;;;4954443;29;20020;-69
2023/07/13 03:20:22;;;;;;;1999.90;999.90;;;15.10;99.90;;;;;;4953880;29;20502;-69
2023/07/13 03:22:50;;;;;;;1999.90;999.90;;;15.00;99.90;;;;;;4954562;29;20070;-69
2023/07/13 03:25:16;;;;;;;1999.90;999.90;;;14.90;99.90;;;;;;4959474;28;20035;-69
2023/07/13 03:27:42;;;;;;;1999.90;999.90;;;14.90;99.90;;;;;;4954458;29;20375;-69
2023/07/13 03:30:09;;;;;;;1999.90;999.90;;;14.80;99.90;;;;;;4937137;29;20506;-69
2023/07/13 03:32:35;;;;;;;1999.90;999.90;;;14.80;99.90;;;;;;4954160;29;20019;-68
2023/07/13 03:35:01;;;;;;;1999.90;999.90;;;14.70;99.90;;;;;;4954096;28;20504;-68
2023/07/13 03:37:26;;;;;;;1999.90;999.90;;;14.70;99.90;;;;;;4954489;29;20032;-69
2023/07/13 03:39:52;;;;;;;1999.90;999.90;;;14.70;99.90;;;;;;4963509;28;20035;-69
2023/07/13 03:42:18;;;;;;;1999.90;999.90;;;14.60;99.90;;;;;;4969169;28;20102;-69
2023/07/13 03:44:50;;;;;;;1999.90;999.90;;;14.60;99.90;;;;;;4936920;29;20094;-69
2023/07/13 03:47:16;;;;;;;1999.90;999.90;;;14.60;99.90;;;;;;4947675;29;20059;-69
2023/07/13 03:49:41;;;;;;;1999.90;999.90;;;14.60;99.90;;;;;;4954068;29;20062;-68
2023/07/13 03:52:07;;;;;;;1999.90;999.90;;;14.50;99.90;;;;;;4954114;28;20034;-69
2023/07/13 03:54:32;;;;;;;1999.90;999.90;;;14.60;99.90;;;;;;4968120;28;20027;-69
2023/07/13 03:56:58;;;;;;;1999.90;999.90;;;14.50;99.90;;;;;;4962066;28;20035;-69
2023/07/13 03:59:24;;;;;;;1999.90;999.90;;;14.40;99.90;;;;;;4954278;29;20033;-68
2023/07/13 04:01:49;;;;;;;1999.90;999.90;;;14.40;99.90;;;;;;4952743;29;20035;-68
2023/07/13 04:04:15;;;;;;;1999.90;999.90;;;14.40;99.90;;;;;;4953725;29;20027;-68
2023/07/13 04:06:41;;;;;;;1999.90;999.90;;;14.30;99.90;;;;;;4952467;29;20027;-70
2023/07/13 04:09:06;;;;;;;1999.90;999.90;;;14.40;99.90;;;;;;4963720;28;20030;-69
2023/07/13 04:11:33;;;;;;;1999.90;999.90;;;14.30;99.90;;;;;;4954168;29;20414;-68
2023/07/13 04:13:59;;;;;;;1999.90;999.90;;;14.30;99.90;;;;;;4953769;28;20027;-68
2023/07/13 04:16:25;;;;;;;1999.90;999.90;;;14.20;99.90;;;;;;4953816;29;20039;-68
2023/07/13 04:18:54;;;;;;;1999.90;999.90;;;14.20;99.90;;;;;;4954056;29;20505;-68
2023/07/13 04:21:20;;;;;;;1999.90;999.90;;;14.20;99.90;;;;;;4953761;28;20055;-68
2023/07/13 04:23:46;;;;;;;1999.90;999.90;;;14.30;99.90;;;;;;4962441;28;20389;-68
2023/07/13 04:26:11;;;;;;;1999.90;999.90;;;14.30;99.90;;;;;;4954232;28;20039;-68
2023/07/13 04:28:37;;;;;;;1999.90;999.90;;;14.30;99.90;;;;;;4957219;29;20034;-68
2023/07/13 04:31:03;;;;;;;1999.90;999.90;;;14.30;99.90;;;;;;4957363;29;20042;-68
2023/07/13 04:33:29;;;;;;;1999.90;999.90;;;14.30;99.90;;;;;;4956950;29;20023;-68
2023/07/13 04:35:56;;;;;;;1999.90;999.90;;;14.30;99.90;;;;;;4967288;28;20045;-69
2023/07/13 04:38:28;;;;;;;1999.90;999.90;;;14.40;99.90;;;;;;4957386;28;20031;-69
2023/07/13 04:41:01;;;;;;;1999.90;999.90;;;14.40;99.90;;;;;;4956200;28;20035;-68
2023/07/13 04:43:27;;;;;;;1999.90;999.90;;;14.40;99.90;;;;;;4946621;28;20338;-68
2023/07/13 04:45:53;;;;;;;1999.90;999.90;;;14.50;99.90;;;;;;4956027;29;20086;-70
2023/07/13 04:48:19;;;;;;;1999.90;999.90;;;14.50;99.90;;;;;;4957016;29;20482;-69
2023/07/13 04:50:46;;;;;;;1999.90;999.90;;;14.50;99.90;;;;;;4957182;28;20027;-69
2023/07/13 04:53:12;;;;;;;1999.90;999.90;;;14.50;99.90;;;;;;4956969;28;20039;-69
2023/07/13 04:55:38;;;;;;;1999.90;999.90;;;14.50;99.90;;;;;;4956860;29;20401;-69
2023/07/13 04:58:04;;;;;;;1999.90;999.90;;;14.50;99.90;;;;;;4956619;29;20043;-69
2023/07/13 05:00:30;;;;;;;1999.90;999.90;;;14.50;99.90;;;;;;4963938;28;20037;-69
2023/07/13 05:02:57;;;;;;;1999.90;999.90;;;14.60;99.90;;;;;;4960570;28;20053;-69
2023/07/13 05:05:23;;;;;;;1999.90;999.90;;;14.60;99.90;;;;;;4956407;28;20035;-69
2023/07/13 05:07:49;;;;;;;1999.90;999.90;;;14.60;99.90;;;;;;4956620;28;20078;-69
2023/07/13 05:10:15;;;;;;;1999.90;999.90;;;14.70;99.90;;;;;;4956087;29;20027;-69
2023/07/13 05:12:40;;;;;;;1999.90;999.90;;;14.70;99.90;;;;;;4955689;29;20482;-69
2023/07/13 05:15:06;;;;;;;1999.90;999.90;;;14.70;99.90;;;;;;4956373;29;20507;-69
2023/07/13 05:17:32;;;;;;;1999.90;999.90;;;14.70;99.90;;;;;;4956162;29;20039;-69
2023/07/13 05:19:57;;;;;;;1999.90;999.90;;;14.70;99.90;;;;;;4956275;29;20045;-69
2023/07/13 05:22:23;;;;;;;1999.90;999.90;;;14.80;99.90;;;;;;4954496;29;20039;-68
2023/07/13 05:24:49;;;;;;;1999.90;999.90;;;14.80;99.90;;;;;;4960895;28;20035;-69
2023/07/13 05:27:15;;;;;;;1999.90;999.90;;;14.80;99.90;;;;;;4956136;29;20031;-68
2023/07/13 05:29:40;;;;;;;1999.90;999.90;;;14.70;99.90;;;;;;4955556;28;20047;-69
2023/07/13 05:32:06;;;;;;;1999.90;999.90;;;14.80;99.90;;;;;;4966866;28;20094;-69
2023/07/13 05:34:32;;;;;;;1999.90;999.90;;;14.90;99.90;;;;;;4954324;29;20031;-68
2023/07/13 05:36:57;;;;;;;1999.90;999.90;;;14.90;99.90;;;;;;4957256;28;20031;-68
2023/07/13 05:39:23;;;;;;;1999.90;999.90;;;14.90;99.90;;;;;;4955955;28;20046;-70
2023/07/13 05:41:49;;;;;;;1999.90;999.90;;;15.00;99.90;;;;;;4955355;29;20028;-69
2023/07/13 05:44:14;;;;;;;1999.90;999.90;;;15.10;99.90;;;;;;4955960;28;20359;-68
2023/07/13 05:46:40;;;;;;;1999.90;999.90;;;15.20;99.90;;;;;;4954497;29;20035;-68
2023/07/13 05:49:06;;;;;;;1999.90;999.90;;;15.30;99.90;;;;;;4955497;29;20027;-69
2023/07/13 05:51:31;;;;;;;1999.90;999.90;;;15.40;99.90;;;;;;4955642;29;20438;-69
2023/07/13 05:53:57;;;;;;;1999.90;999.90;;;15.50;99.90;;;;;;4938123;29;20059;-69
2023/07/13 05:56:23;;;;;;;1999.90;999.90;;;15.60;99.90;;;;;;4954786;29;20030;-69
2023/07/13 05:58:49;;;;;;;1999.90;999.90;;;15.70;99.90;;;;;;4938038;29;20086;-69
2023/07/13 06:01:16;;;;;;;1999.90;999.90;;;15.80;99.90;;;;;;4954648;29;20023;-69
2023/07/13 06:03:41;;;;;;;1999.90;999.90;;;16.00;99.90;;;;;;4953587;28;20487;-69
2023/07/13 06:06:09;;;;;;;1999.90;999.90;;;16.10;99.90;;;;;;4955168;29;20028;-70
2023/07/13 06:08:35;;;;;;;1999.90;999.90;;;16.20;99.90;;;;;;4953478;29;20110;-69
2023/07/13 06:11:13;;;;;;;1999.90;999.90;;;16.30;99.90;;;;;;4935702;29;20051;-69
2023/07/13 06:13:39;;;;;;;1999.90;999.90;;;16.50;99.90;;;;;;4951005;28;20038;-69
2023/07/13 06:16:05;;;;;;;1999.90;999.90;;;16.60;99.90;;;;;;4940992;29;20035;-69
2023/07/13 06:18:32;;;;;;;1999.90;999.90;;;16.80;99.90;;;;;;4952778;29;20062;-69
2023/07/13 06:20:58;;;;;;;1999.90;999.90;;;16.90;99.90;;;;;;4953028;29;20498;-69
2023/07/13 06:23:24;;;;;;;1999.90;999.90;;;17.10;99.90;;;;;;4938716;28;20074;-69
2023/07/13 06:25:50;;;;;;;1999.90;999.90;;;17.20;99.90;;;;;;4957132;28;20363;-69
2023/07/13 06:28:15;;;;;;;1999.90;999.90;;;17.30;99.90;;;;;;4938532;29;20038;-69
2023/07/13 06:30:41;;;;;;;1999.90;999.90;;;17.40;99.90;;;;;;4953405;29;20055;-69
2023/07/13 06:33:07;;;;;;;1999.90;999.90;;;17.50;99.90;;;;;;4948773;28;20398;-69
2023/07/13 06:35:33;;;;;;;1999.90;999.90;;;17.60;99.90;;;;;;4940057;28;20029;-70
2023/07/13 06:37:59;;;;;;;1999.90;999.90;;;17.80;99.90;;;;;;4949605;29;20102;-69
2023/07/13 06:40:24;;;;;;;1999.90;999.90;;;17.90;99.90;;;;;;4951026;28;20031;-69
2023/07/13 06:42:50;;;;;;;1999.90;999.90;;;18.10;99.90;;;;;;4949647;28;20035;-71
2023/07/13 06:45:16;;;;;;;1999.90;999.90;;;18.20;99.90;;;;;;4938769;29;20829;-70
2023/07/13 06:47:41;;;;;;;1999.90;999.90;;;18.30;99.90;;;;;;4952817;29;20023;-69
2023/07/13 06:50:07;;;;;;;1999.90;999.90;;;18.40;99.90;;;;;;4951572;28;20030;-69
2023/07/13 06:52:33;;;;;;;1999.90;999.90;;;18.50;99.90;;;;;;4952311;28;20126;-69
2023/07/13 06:54:58;;;;;;;1999.90;999.90;;;18.60;99.90;;;;;;4951959;29;20043;-69
2023/07/13 06:57:24;;;;;;;1999.90;999.90;;;18.70;99.90;;;;;;4961244;28;20031;-69
2023/07/13 06:59:49;;;;;;;1999.90;999.90;;;18.80;99.90;;;;;;4952577;29;20038;-69
2023/07/13 07:02:15;;;;;;;1999.90;999.90;;;19.00;99.90;;;;;;4951988;29;20039;-69
2023/07/13 07:04:40;;;;;;;1999.90;999.90;;;19.10;99.90;;;;;;4951660;29;20163;-68
2023/07/13 07:07:06;;;;;;;1999.90;999.90;;;19.10;99.90;;;;;;4951806;29;20062;-69
2023/07/13 07:09:32;;;;;;;1999.90;999.90;;;19.30;99.90;;;;;;4952079;29;20106;-70
2023/07/13 07:11:58;;;;;;;1999.90;999.90;;;19.50;99.90;;;;;;4938241;29;20513;-69
2023/07/13 07:14:23;;;;;;;1999.90;999.90;;;19.60;99.90;;;;;;4942149;29;20114;-69
2023/07/13 07:16:50;;;;;;;1999.90;999.90;;;19.80;99.90;;;;;;4951949;29;20046;-69
2023/07/13 07:19:16;;;;;;;1999.90;999.90;;;19.80;99.90;;;;;;4951604;29;20506;-69
2023/07/13 07:21:41;;;;;;;1999.90;999.90;;;19.90;99.90;;;;;;4951889;29;20444;-70
2023/07/13 07:24:07;;;;;;;1999.90;999.90;;;20.00;99.90;;;;;;4951117;29;20387;-70
2023/07/13 07:26:33;;;;;;;1999.90;999.90;;;19.90;99.90;;;;;;4951581;29;20034;-69
2023/07/13 07:28:59;;;;;;;1999.90;999.90;;;19.90;99.90;;;;;;4950827;28;20035;-70
2023/07/13 07:31:24;;;;;;;1999.90;999.90;;;20.00;99.90;;;;;;4951499;28;20027;-68
2023/07/13 07:33:50;;;;;;;1999.90;999.90;;;20.10;99.90;;;;;;4956621;28;20454;-68
2023/07/13 07:36:16;;;;;;;1999.90;999.90;;;20.40;99.90;;;;;;4955249;28;20034;-70
2023/07/13 07:38:43;;;;;;;1999.90;999.90;;;20.90;99.90;;;;;;4951794;28;20031;-69
2023/07/13 07:41:09;;;;;;;1999.90;999.90;;;21.30;99.90;;;;;;4951276;29;20031;-69
2023/07/13 07:43:35;;;;;;;1999.90;999.90;;;23.70;99.90;;;;;;4951695;29;20046;-69
2023/07/13 07:46:00;;;;;;;1999.90;999.90;;;24.20;99.90;;;;;;4951277;29;20038;-68
2023/07/13 07:48:26;;;;;;;1999.90;999.90;;;22.40;99.90;;;;;;4951258;29;20051;-68
2023/07/13 07:50:52;;;;;;;1999.90;999.90;;;21.50;99.90;;;;;;4943720;28;20499;-69
2023/07/13 07:53:17;;;;;;;1999.90;999.90;;;23.40;99.90;;;;;;4951566;28;20082;-69
2023/07/13 07:55:43;;;;;;;1999.90;999.90;;;25.20;99.90;;;;;;4950822;29;20087;-68
2023/07/13 07:58:09;;;;;;;1999.90;999.90;;;26.00;99.90;;;;;;4951260;29;20043;-67
2023/07/13 08:00:35;;;;;;;1999.90;999.90;;;27.00;99.90;;;;;;4951416;29;20035;-68
2023/07/13 08:03:01;;;;;;;1999.90;999.90;;;27.90;99.90;;;;;;4953205;28;20126;-71
2023/07/13 08:05:27;;;;;;;1999.90;999.90;;;27.70;99.90;;;;;;4938116;29;20446;-68
2023/07/13 08:07:53;;;;;;;1999.90;999.90;;;28.90;99.90;;;;;;4952436;28;20454;-69
2023/07/13 08:10:19;;;;;;;1999.90;999.90;;;28.40;99.90;;;;;;4951488;28;20027;-68
2023/07/13 08:12:44;;;;;;;1999.90;999.90;;;26.90;99.90;;;;;;4956033;28;20059;-68
2023/07/13 08:15:15;;;;;;;1999.90;999.90;;;24.90;99.90;;;;;;4955137;29;20087;-68
2023/07/13 08:17:40;;;;;;;1999.90;999.90;;;23.40;99.90;;;;;;4955601;28;20042;-70
2023/07/13 08:20:08;;;;;;;1999.90;999.90;;;23.10;99.90;;;;;;4955206;28;20686;-67
2023/07/13 08:22:35;;;;;;;1999.90;999.90;;;22.30;99.90;;;;;;4950029;29;20046;-67
2023/07/13 08:25:01;;;;;;;1999.90;999.90;;;21.80;99.90;;;;;;4951119;29;20414;-67
2023/07/13 08:27:28;;;;;;;1999.90;999.90;;;21.60;99.90;;;;;;4953074;29;20035;-70
2023/07/13 08:29:54;;;;;;;1999.90;999.90;;;21.50;99.90;;;;;;4954816;29;20030;-67
2023/07/13 08:32:21;;;;;;;1999.90;999.90;;;21.60;99.90;;;;;;4953032;29;20031;-67
2023/07/13 08:34:47;;;;;;;1999.90;999.90;;;21.60;99.90;;;;;;4958195;28;20034;-67
2023/07/13 08:37:13;;;;;;;1999.90;999.90;;;21.80;99.90;;;;;;4954125;28;20309;-67
2023/07/13 08:39:39;;;;;;;1999.90;999.90;;;21.80;99.90;;;;;;4954506;28;20090;-70
2023/07/13 08:42:12;;;;;;;1999.90;999.90;;;21.60;99.90;;;;;;4954128;28;20039;-70
2023/07/13 08:45:05;;;;;;;1999.90;999.90;;;22.00;99.90;;;;;;4928667;29;20023;-68
2023/07/13 08:47:35;;;;;;;1999.90;999.90;;;23.80;99.90;;;;;;4950930;29;20513;-68
2023/07/13 08:50:01;;;;;;;1999.90;999.90;;;23.70;99.90;;;;;;4953760;28;20494;-68
2023/07/13 08:52:34;;;;;;;1999.90;999.90;;;23.50;99.90;;;;;;4952914;28;20043;-68
2023/07/13 08:55:21;;;;;;;1999.90;999.90;;;23.30;99.90;;;;;;4942089;29;20046;-68
2023/07/13 08:57:54;;;;;;;1999.90;999.90;;;22.80;99.90;;;;;;4954919;28;20027;-68
2023/07/13 09:00:20;;;;;;;1999.90;999.90;;;23.60;99.90;;;;;;4953728;29;20055;-68
2023/07/13 09:02:55;;;;;;;1999.90;999.90;;;24.70;99.90;;;;;;4953870;29;20055;-68
2023/07/13 09:05:29;;;;;;;1999.90;999.90;;;25.40;99.90;;;;;;4935990;29;20031;-70
2023/07/13 09:08:10;;;;;;;1999.90;999.90;;;27.10;99.90;;;;;;4953894;29;20074;-71
2023/07/13 09:10:45;;;;;;;1999.90;999.90;;;29.20;99.90;;;;;;4948392;29;20066;-68
2023/07/13 09:13:30;;;;;;;1999.90;999.90;;;29.40;99.90;;;;;;4953501;28;20398;-70
2023/07/13 09:15:55;;;;;;;1999.90;999.90;;;29.50;99.90;;;;;;4948468;29;20095;-71
2023/07/13 09:18:33;;;;;;;1999.90;999.90;;;30.30;99.90;;;;;;4953878;29;20039;-72
2023/07/13 09:21:11;;;;;;;1999.90;999.90;;;29.80;99.90;;;;;;4952991;29;20105;-73
2023/07/13 09:23:38;;;;;;;1999.90;999.90;;;30.60;99.90;;;;;;4947880;29;20098;-71
2023/07/13 09:26:14;;;;;;;1999.90;999.90;;;31.00;99.90;;;;;;4954004;28;20032;-71
2023/07/13 09:28:45;;;;;;;1999.90;999.90;;;32.50;99.80;;;;;;4954265;29;20016;-71
2023/07/13 09:31:20;;;;;;;1999.90;999.90;;;33.00;98.20;;;;;;4928185;29;20069;-70
2023/07/13 09:33:45;;;;;;;1999.90;999.90;;;33.00;98.30;;;;;;4967011;28;20453;-70
2023/07/13 09:36:28;;;;;;;1999.90;999.90;;;33.10;96.20;;;;;;4956621;28;20059;-70
2023/07/13 09:39:05;;;;;;;1999.90;999.90;;;30.70;98.00;;;;;;4934285;29;20801;-69
2023/07/13 09:41:41;;;;;;;1999.90;999.90;;;27.40;99.90;;;;;;4955235;28;20081;-70
2023/07/13 09:44:13;;;;;;;1999.90;999.90;;;25.50;99.90;;;;;;4954410;29;20042;-70
2023/07/13 09:46:47;;;;;;;1999.90;999.90;;;24.50;99.90;;;;;;4953157;28;20027;-71
2023/07/13 09:49:13;;;;;;;1999.90;999.90;;;23.90;99.90;;;;;;4953110;29;20054;-69
2023/07/13 09:51:41;;;;;;;1999.90;999.90;;;23.90;99.90;;;;;;4946418;29;20466;-71
2023/07/13 09:54:18;;;;;;;1999.90;999.90;;;25.60;99.90;;;;;;4953885;28;20051;-70
2023/07/13 09:56:44;;;;;;;1999.90;999.90;;;28.00;99.90;;;;;;4956312;28;20458;-70
2023/07/13 09:59:21;;;;;;;1999.90;999.90;;;27.10;99.90;;;;;;4953648;28;20078;-72
2023/07/13 10:01:48;;;;;;;1999.90;999.90;;;25.90;99.90;;;;;;4953075;28;20034;-72
2023/07/13 10:04:21;;;;;;;1999.90;999.90;;;24.90;99.90;;;;;;4952780;29;20056;-68
2023/07/13 10:06:47;;;;;;;1999.90;999.90;;;24.40;99.90;;;;;;4953108;28;20031;-67
2023/07/13 10:09:18;;;;;;;1999.90;999.90;;;24.10;99.90;;;;;;4938726;29;20375;-67
2023/07/13 10:11:45;;;;;;;1999.90;999.90;;;23.60;99.90;;;;;;4953633;29;20069;-67
2023/07/13 10:14:25;;;;;;;1999.90;999.90;;;23.50;99.90;;;;;;4949393;29;20111;-68
2023/07/13 10:17:01;;;;;;;1999.90;999.90;;;23.70;99.90;;;;;;4950363;29;20054;-68
2023/07/13 10:19:32;;;;;;;1999.90;999.90;;;24.10;99.90;;;;;;4954498;29;20027;-67
2023/07/13 10:22:13;;;;;;;1999.90;999.90;;;23.80;99.90;;;;;;4954356;29;20082;-67
2023/07/13 10:24:39;;;;;;;1999.90;999.90;;;23.90;99.90;;;;;;4951204;28;20031;-70
2023/07/13 10:27:25;;;;;;;1999.90;999.90;;;23.70;99.90;;;;;;4953513;29;20028;-67
2023/07/13 10:30:19;;;;;;;1999.90;999.90;;;23.50;99.90;;;;;;4943293;29;20019;-68
2023/07/13 10:32:46;;;;;;;1999.90;999.90;;;23.70;99.90;;;;;;4947665;28;20020;-67
2023/07/13 10:35:15;;;;;;;1999.90;999.90;;;26.40;99.90;;;;;;4952879;28;20031;-68
2023/07/13 10:37:55;;;;;;;1999.90;999.90;;;27.80;99.90;;;;;;4948584;28;20034;-68
2023/07/13 10:40:32;;;;;;;1999.90;999.90;;;28.70;99.90;;;;;;4952157;28;20031;-68
2023/07/13 10:43:01;;;;;;;1999.90;999.90;;;30.10;99.90;;;;;;4954002;28;20102;-68
2023/07/13 10:45:30;;;;;;;1999.90;999.90;;;30.10;99.90;;;;;;4933184;29;20497;-68
2023/07/13 10:47:56;;;;;;;1999.90;999.90;;;30.00;99.50;;;;;;4949982;29;20410;-69
2023/07/13 10:50:27;;;;;;;1999.90;999.90;;;30.80;99.50;;;;;;4944650;29;20032;-71
2023/07/13 10:52:56;;;;;;;1999.90;999.90;;;30.10;98.50;;;;;;4950806;29;20050;-68
2023/07/13 10:55:53;;;;;;;1999.90;999.90;;;30.10;98.90;;;;;;4949736;28;20039;-68
2023/07/13 10:58:22;;;;;;;1999.90;999.90;;;30.20;98.90;;;;;;4937654;29;20031;-68
2023/07/13 11:00:51;;;;;;;1999.90;999.90;;;29.10;99.70;;;;;;4944815;28;20382;-68
2023/07/13 11:03:21;;;;;;;1999.90;999.90;;;29.40;99.90;;;;;;4948460;29;20031;-68
2023/07/13 11:05:51;;;;;;;1999.90;999.90;;;29.50;99.30;;;;;;4953027;29;20134;-68
2023/07/13 11:08:32;;;;;;;1999.90;999.90;;;29.50;99.20;;;;;;4937117;29;20019;-68
2023/07/13 11:10:58;;;;;;;1999.90;999.90;;;29.60;99.50;;;;;;4953318;29;20134;-67
2023/07/13 11:13:47;;;;;;;1999.90;999.90;;;29.20;99.60;;;;;;4952376;28;20549;-68
2023/07/13 11:16:15;;;;;;;1999.90;999.90;;;29.20;98.70;;;;;;4949254;29;20035;-70
2023/07/13 11:18:49;;;;;;;1999.90;999.90;;;30.00;98.10;;;;;;4947803;29;20027;-70
2023/07/13 11:21:26;;;;;;;1999.90;999.90;;;30.10;96.90;;;;;;4951758;29;20042;-68
2023/07/13 11:24:13;;;;;;;1999.90;999.90;;;30.10;96.20;;;;;;4952619;29;20027;-68
2023/07/13 11:26:48;;;;;;;1999.90;999.90;;;29.40;98.80;;;;;;4943623;29;20042;-68
2023/07/13 11:29:40;;;;;;;1999.90;999.90;;;29.40;98.90;;;;;;4955953;28;20508;-70
2023/07/13 11:32:29;;;;;;;1999.90;999.90;;;29.70;98.50;;;;;;4946258;28;20486;-70
2023/07/13 11:34:55;;;;;;;1999.90;999.90;;;29.50;97.80;;;;;;4948783;29;20039;-69
2023/07/13 11:37:22;;;;;;;1999.90;999.90;;;27.80;98.50;;;;;;4951465;28;20038;-68
2023/07/13 11:39:49;;;;;;;1999.90;999.90;;;26.80;99.90;;;;;;4945927;29;20031;-68
2023/07/13 11:42:18;;;;;;;1999.90;999.90;;;26.70;99.90;;;;;;4949587;28;20078;-70
2023/07/13 11:44:50;;;;;;;1999.90;999.90;;;26.90;99.90;;;;;;4949923;28;20019;-70
2023/07/13 11:47:22;;;;;;;1999.90;999.90;;;26.80;99.90;;;;;;4956170;29;20075;-68
2023/07/13 11:49:56;;;;;;;1999.90;999.90;;;26.40;99.90;;;;;;4956658;29;20106;-68
2023/07/13 11:52:33;;;;;;;1999.90;999.90;;;26.80;99.90;;;;;;4954647;28;20023;-67
2023/07/13 11:55:01;;;;;;;1999.90;999.90;;;27.10;99.90;;;;;;4942173;29;20106;-68
2023/07/13 11:57:33;;;;;;;1999.90;999.90;;;27.80;99.20;;;;;;4948785;29;20034;-68
2023/07/13 12:00:10;;;;;;;1999.90;999.90;;;28.30;99.60;;;;;;4955695;29;20383;-68
2023/07/13 12:02:41;;;;;;;1999.90;999.90;;;29.20;98.30;;;;;;4952259;28;20042;-69
2023/07/13 12:05:12;;;;;;;1999.90;999.90;;;29.60;97.10;;;;;;4955174;29;20039;-68